sensor_id;sensor_type;location;lat;lon;timestamp;P1;durP1;ratioP1;P2;durP2;ratioP2
64868;SDS011;51349;52.424;10.840;2023-07-31T00:02:45;2.30;;;2.10;;
64868;SDS011;51349;52.424;10.840;2023-07-31T00:07:46;2.47;;;2.10;;
64868;SDS011;51349;52.424;10.840;2023-07-31T00:12:46;4.18;;;2.10;;
64868;SDS011;51349;52.424;10.840;2023-07-31T00:17:47;2.22;;;2.05;;
64868;SDS011;51349;52.424;10.840;2023-07-31T00:22:48;2.13;;;1.92;;
64868;SDS011;51349;52.424;10.840;2023-07-31T00:27:48;2.25;;;2.00;;
64868;SDS011;51349;52.424;10.840;2023-07-31T00:32:49;3.53;;;2.10;;
64868;SDS011;51349;52.424;10.840;2023-07-31T00:37:50;2.35;;;1.95;;
64868;SDS011;51349;52.424;10.840;2023-07-31T00:42:50;2.22;;;2.00;;
64868;SDS011;51349;52.424;10.840;2023-07-31T00:47:51;3.50;;;2.00;;
64868;SDS011;51349;52.424;10.840;2023-07-31T00:52:51;1.95;;;1.80;;
64868;SDS011;51349;52.424;10.840;2023-07-31T00:57:52;2.85;;;1.85;;
64868;SDS011;51349;52.424;10.840;2023-07-31T01:02:55;2.45;;;2.03;;
64868;SDS011;51349;52.424;10.840;2023-07-31T01:08:09;2.67;;;2.05;;
64868;SDS011;51349;52.424;10.840;2023-07-31T01:13:16;3.53;;;2.10;;
64868;SDS011;51349;52.424;10.840;2023-07-31T01:18:17;2.80;;;2.03;;
64868;SDS011;51349;52.424;10.840;2023-07-31T01:28:44;3.75;;;2.05;;
64868;SDS011;51349;52.424;10.840;2023-07-31T01:33:54;3.45;;;2.03;;
64868;SDS011;51349;52.424;10.840;2023-07-31T01:38:59;2.58;;;1.90;;
64868;SDS011;51349;52.424;10.840;2023-07-31T01:44:01;3.35;;;2.20;;
64868;SDS011;51349;52.424;10.840;2023-07-31T01:49:01;2.08;;;1.85;;
64868;SDS011;51349;52.424;10.840;2023-07-31T01:54:02;2.65;;;2.28;;
64868;SDS011;51349;52.424;10.840;2023-07-31T01:59:03;2.72;;;1.88;;
64868;SDS011;51349;52.424;10.840;2023-07-31T02:04:04;3.35;;;2.25;;
64868;SDS011;51349;52.424;10.840;2023-07-31T02:09:05;3.25;;;2.10;;
64868;SDS011;51349;52.424;10.840;2023-07-31T02:14:05;4.90;;;2.50;;
64868;SDS011;51349;52.424;10.840;2023-07-31T02:19:07;3.20;;;2.80;;
64868;SDS011;51349;52.424;10.840;2023-07-31T02:24:08;5.30;;;2.90;;
64868;SDS011;51349;52.424;10.840;2023-07-31T02:29:08;4.95;;;2.50;;
64868;SDS011;51349;52.424;10.840;2023-07-31T02:34:09;2.78;;;2.22;;
64868;SDS011;51349;52.424;10.840;2023-07-31T02:39:10;3.15;;;2.20;;
64868;SDS011;51349;52.424;10.840;2023-07-31T02:44:10;2.92;;;2.10;;
64868;SDS011;51349;52.424;10.840;2023-07-31T02:49:14;2.17;;;1.83;;
64868;SDS011;51349;52.424;10.840;2023-07-31T02:54:14;2.55;;;2.00;;
64868;SDS011;51349;52.424;10.840;2023-07-31T02:59:17;1.58;;;1.48;;
64868;SDS011;51349;52.424;10.840;2023-07-31T03:04:18;3.17;;;1.77;;
64868;SDS011;51349;52.424;10.840;2023-07-31T03:09:18;1.83;;;1.73;;
64868;SDS011;51349;52.424;10.840;2023-07-31T03:14:19;2.30;;;1.73;;
64868;SDS011;51349;52.424;10.840;2023-07-31T03:19:20;1.80;;;1.55;;
64868;SDS011;51349;52.424;10.840;2023-07-31T03:24:20;2.35;;;1.63;;
64868;SDS011;51349;52.424;10.840;2023-07-31T03:29:21;2.05;;;1.60;;
64868;SDS011;51349;52.424;10.840;2023-07-31T03:34:22;1.58;;;1.42;;
64868;SDS011;51349;52.424;10.840;2023-07-31T03:39:22;1.50;;;1.40;;
64868;SDS011;51349;52.424;10.840;2023-07-31T03:44:23;4.00;;;1.58;;
64868;SDS011;51349;52.424;10.840;2023-07-31T03:49:24;1.90;;;1.40;;
64868;SDS011;51349;52.424;10.840;2023-07-31T03:54:25;1.73;;;1.30;;
64868;SDS011;51349;52.424;10.840;2023-07-31T03:59:25;1.30;;;1.20;;
64868;SDS011;51349;52.424;10.840;2023-07-31T04:04:26;1.42;;;1.10;;
64868;SDS011;51349;52.424;10.840;2023-07-31T04:09:27;1.40;;;1.40;;
64868;SDS011;51349;52.424;10.840;2023-07-31T04:14:27;1.50;;;1.40;;
64868;SDS011;51349;52.424;10.840;2023-07-31T04:19:28;1.50;;;1.40;;
64868;SDS011;51349;52.424;10.840;2023-07-31T04:24:29;1.23;;;1.20;;
64868;SDS011;51349;52.424;10.840;2023-07-31T04:29:29;1.60;;;1.50;;
64868;SDS011;51349;52.424;10.840;2023-07-31T04:34:30;1.70;;;1.40;;
64868;SDS011;51349;52.424;10.840;2023-07-31T04:39:30;2.15;;;1.48;;
64868;SDS011;51349;52.424;10.840;2023-07-31T04:44:31;1.52;;;1.42;;
64868;SDS011;51349;52.424;10.840;2023-07-31T04:49:32;1.50;;;1.40;;
64868;SDS011;51349;52.424;10.840;2023-07-31T04:54:33;1.80;;;1.70;;
64868;SDS011;51349;52.424;10.840;2023-07-31T04:59:33;1.88;;;1.63;;
64868;SDS011;51349;52.424;10.840;2023-07-31T05:04:34;1.40;;;1.30;;
64868;SDS011;51349;52.424;10.840;2023-07-31T05:09:34;2.22;;;1.30;;
64868;SDS011;51349;52.424;10.840;2023-07-31T05:14:35;2.00;;;1.55;;
64868;SDS011;51349;52.424;10.840;2023-07-31T05:19:36;1.80;;;1.33;;
64868;SDS011;51349;52.424;10.840;2023-07-31T05:24:36;1.30;;;1.20;;
64868;SDS011;51349;52.424;10.840;2023-07-31T05:29:37;1.25;;;1.25;;
64868;SDS011;51349;52.424;10.840;2023-07-31T05:34:38;3.38;;;1.52;;
64868;SDS011;51349;52.424;10.840;2023-07-31T05:39:38;1.13;;;1.13;;
64868;SDS011;51349;52.424;10.840;2023-07-31T05:44:39;1.98;;;1.50;;
64868;SDS011;51349;52.424;10.840;2023-07-31T05:49:40;1.33;;;1.23;;
64868;SDS011;51349;52.424;10.840;2023-07-31T05:54:41;1.60;;;1.50;;
64868;SDS011;51349;52.424;10.840;2023-07-31T05:59:42;1.35;;;1.25;;
64868;SDS011;51349;52.424;10.840;2023-07-31T06:04:43;1.50;;;1.40;;
64868;SDS011;51349;52.424;10.840;2023-07-31T06:09:43;1.55;;;1.45;;
64868;SDS011;51349;52.424;10.840;2023-07-31T06:14:44;2.05;;;1.40;;
64868;SDS011;51349;52.424;10.840;2023-07-31T06:19:44;1.20;;;1.10;;
64868;SDS011;51349;52.424;10.840;2023-07-31T06:24:46;1.10;;;1.10;;
64868;SDS011;51349;52.424;10.840;2023-07-31T06:29:46;1.15;;;1.10;;
64868;SDS011;51349;52.424;10.840;2023-07-31T06:34:48;1.30;;;1.20;;
64868;SDS011;51349;52.424;10.840;2023-07-31T06:39:48;1.40;;;1.30;;
64868;SDS011;51349;52.424;10.840;2023-07-31T06:44:49;1.50;;;1.40;;
64868;SDS011;51349;52.424;10.840;2023-07-31T06:49:50;2.28;;;2.00;;
64868;SDS011;51349;52.424;10.840;2023-07-31T06:55:00;1.85;;;1.75;;
64868;SDS011;51349;52.424;10.840;2023-07-31T07:00:21;1.98;;;1.80;;
64868;SDS011;51349;52.424;10.840;2023-07-31T07:05:23;2.40;;;2.20;;
64868;SDS011;51349;52.424;10.840;2023-07-31T07:10:23;2.40;;;2.30;;
64868;SDS011;51349;52.424;10.840;2023-07-31T07:15:24;2.70;;;2.40;;
64868;SDS011;51349;52.424;10.840;2023-07-31T07:20:25;2.92;;;2.60;;
64868;SDS011;51349;52.424;10.840;2023-07-31T07:25:26;3.03;;;2.83;;
64868;SDS011;51349;52.424;10.840;2023-07-31T07:30:26;3.45;;;3.00;;
64868;SDS011;51349;52.424;10.840;2023-07-31T07:35:27;3.78;;;3.47;;
64868;SDS011;51349;52.424;10.840;2023-07-31T07:40:28;5.43;;;3.65;;
64868;SDS011;51349;52.424;10.840;2023-07-31T07:45:28;5.28;;;3.92;;
64868;SDS011;51349;52.424;10.840;2023-07-31T07:50:29;4.80;;;4.40;;
64868;SDS011;51349;52.424;10.840;2023-07-31T07:55:35;5.15;;;4.65;;
64868;SDS011;51349;52.424;10.840;2023-07-31T08:00:35;6.13;;;5.45;;
64868;SDS011;51349;52.424;10.840;2023-07-31T08:05:36;6.25;;;5.65;;
64868;SDS011;51349;52.424;10.840;2023-07-31T08:10:36;9.07;;;5.63;;
64868;SDS011;51349;52.424;10.840;2023-07-31T08:15:37;6.78;;;5.90;;
64868;SDS011;51349;52.424;10.840;2023-07-31T08:20:40;8.07;;;6.25;;
64868;SDS011;51349;52.424;10.840;2023-07-31T08:25:41;7.68;;;6.05;;
64868;SDS011;51349;52.424;10.840;2023-07-31T08:30:42;8.05;;;6.80;;
64868;SDS011;51349;52.424;10.840;2023-07-31T08:35:42;7.40;;;6.65;;
64868;SDS011;51349;52.424;10.840;2023-07-31T08:40:43;7.43;;;6.63;;
64868;SDS011;51349;52.424;10.840;2023-07-31T08:45:44;7.30;;;6.40;;
64868;SDS011;51349;52.424;10.840;2023-07-31T08:50:45;7.93;;;6.15;;
64868;SDS011;51349;52.424;10.840;2023-07-31T08:55:46;6.80;;;5.63;;
64868;SDS011;51349;52.424;10.840;2023-07-31T09:00:48;7.78;;;6.22;;
64868;SDS011;51349;52.424;10.840;2023-07-31T09:05:50;8.60;;;6.00;;
64868;SDS011;51349;52.424;10.840;2023-07-31T09:10:51;7.85;;;4.97;;
64868;SDS011;51349;52.424;10.840;2023-07-31T09:15:52;8.13;;;5.88;;
64868;SDS011;51349;52.424;10.840;2023-07-31T09:21:03;7.00;;;5.30;;
64868;SDS011;51349;52.424;10.840;2023-07-31T09:26:04;7.10;;;5.32;;
64868;SDS011;51349;52.424;10.840;2023-07-31T09:31:05;7.25;;;5.60;;
64868;SDS011;51349;52.424;10.840;2023-07-31T09:36:06;7.40;;;5.35;;
64868;SDS011;51349;52.424;10.840;2023-07-31T09:41:06;7.88;;;5.30;;
64868;SDS011;51349;52.424;10.840;2023-07-31T09:46:12;6.05;;;5.47;;
64868;SDS011;51349;52.424;10.840;2023-07-31T09:51:13;6.80;;;5.15;;
64868;SDS011;51349;52.424;10.840;2023-07-31T09:56:14;6.18;;;3.13;;
64868;SDS011;51349;52.424;10.840;2023-07-31T10:01:16;2.58;;;2.38;;
64868;SDS011;51349;52.424;10.840;2023-07-31T10:06:16;3.30;;;2.50;;
64868;SDS011;51349;52.424;10.840;2023-07-31T10:11:19;2.78;;;2.00;;
64868;SDS011;51349;52.424;10.840;2023-07-31T10:16:22;2.70;;;2.30;;
64868;SDS011;51349;52.424;10.840;2023-07-31T10:21:23;3.67;;;1.83;;
64868;SDS011;51349;52.424;10.840;2023-07-31T10:26:24;2.35;;;2.00;;
64868;SDS011;51349;52.424;10.840;2023-07-31T10:31:26;3.33;;;1.75;;
64868;SDS011;51349;52.424;10.840;2023-07-31T10:36:28;1.85;;;1.70;;
64868;SDS011;51349;52.424;10.840;2023-07-31T10:41:29;2.20;;;2.00;;
64868;SDS011;51349;52.424;10.840;2023-07-31T10:46:33;1.88;;;1.77;;
64868;SDS011;51349;52.424;10.840;2023-07-31T10:51:34;2.72;;;1.95;;
64868;SDS011;51349;52.424;10.840;2023-07-31T10:56:38;3.55;;;2.05;;
64868;SDS011;51349;52.424;10.840;2023-07-31T11:01:53;4.07;;;2.05;;
64868;SDS011;51349;52.424;10.840;2023-07-31T11:06:57;3.13;;;2.13;;
64868;SDS011;51349;52.424;10.840;2023-07-31T11:12:03;2.80;;;2.40;;
64868;SDS011;51349;52.424;10.840;2023-07-31T11:17:07;1.90;;;1.80;;
64868;SDS011;51349;52.424;10.840;2023-07-31T11:22:08;3.28;;;1.58;;
64868;SDS011;51349;52.424;10.840;2023-07-31T11:27:09;2.13;;;1.90;;
64868;SDS011;51349;52.424;10.840;2023-07-31T11:32:15;2.15;;;1.63;;
64868;SDS011;51349;52.424;10.840;2023-07-31T11:37:17;1.98;;;1.70;;
64868;SDS011;51349;52.424;10.840;2023-07-31T11:42:18;1.60;;;1.50;;
64868;SDS011;51349;52.424;10.840;2023-07-31T11:47:18;1.95;;;1.60;;
64868;SDS011;51349;52.424;10.840;2023-07-31T11:52:20;2.20;;;1.50;;
64868;SDS011;51349;52.424;10.840;2023-07-31T11:57:20;1.55;;;1.45;;
64868;SDS011;51349;52.424;10.840;2023-07-31T12:02:22;1.90;;;1.25;;
64868;SDS011;51349;52.424;10.840;2023-07-31T12:07:23;1.85;;;1.75;;
64868;SDS011;51349;52.424;10.840;2023-07-31T12:12:25;1.70;;;1.50;;
64868;SDS011;51349;52.424;10.840;2023-07-31T12:17:26;2.25;;;2.08;;
64868;SDS011;51349;52.424;10.840;2023-07-31T12:22:26;2.42;;;2.22;;
64868;SDS011;51349;52.424;10.840;2023-07-31T12:27:32;2.60;;;2.40;;
64868;SDS011;51349;52.424;10.840;2023-07-31T12:32:33;3.25;;;2.45;;
64868;SDS011;51349;52.424;10.840;2023-07-31T12:37:34;2.33;;;2.17;;
64868;SDS011;51349;52.424;10.840;2023-07-31T12:42:34;2.40;;;2.20;;
64868;SDS011;51349;52.424;10.840;2023-07-31T12:47:35;4.20;;;2.30;;
64868;SDS011;51349;52.424;10.840;2023-07-31T12:52:36;3.00;;;2.42;;
64868;SDS011;51349;52.424;10.840;2023-07-31T12:57:37;2.42;;;2.22;;
64868;SDS011;51349;52.424;10.840;2023-07-31T13:02:37;3.42;;;2.20;;
64868;SDS011;51349;52.424;10.840;2023-07-31T13:07:38;2.22;;;2.03;;
64868;SDS011;51349;52.424;10.840;2023-07-31T13:12:39;2.42;;;2.10;;
64868;SDS011;51349;52.424;10.840;2023-07-31T13:17:40;2.95;;;2.17;;
64868;SDS011;51349;52.424;10.840;2023-07-31T13:22:44;2.38;;;2.22;;
64868;SDS011;51349;52.424;10.840;2023-07-31T13:27:45;2.20;;;2.00;;
64868;SDS011;51349;52.424;10.840;2023-07-31T13:32:46;2.35;;;2.15;;
64868;SDS011;51349;52.424;10.840;2023-07-31T13:37:46;2.20;;;1.85;;
64868;SDS011;51349;52.424;10.840;2023-07-31T13:42:47;2.63;;;2.42;;
64868;SDS011;51349;52.424;10.840;2023-07-31T13:47:49;2.47;;;2.20;;
64868;SDS011;51349;52.424;10.840;2023-07-31T13:52:51;1.77;;;1.67;;
64868;SDS011;51349;52.424;10.840;2023-07-31T13:57:51;2.20;;;2.00;;
64868;SDS011;51349;52.424;10.840;2023-07-31T14:02:53;1.75;;;1.65;;
64868;SDS011;51349;52.424;10.840;2023-07-31T14:07:54;2.53;;;1.35;;
64868;SDS011;51349;52.424;10.840;2023-07-31T14:12:54;1.83;;;1.50;;
64868;SDS011;51349;52.424;10.840;2023-07-31T14:17:55;1.27;;;1.27;;
64868;SDS011;51349;52.424;10.840;2023-07-31T14:22:55;1.05;;;1.05;;
64868;SDS011;51349;52.424;10.840;2023-07-31T14:27:56;1.10;;;1.10;;
64868;SDS011;51349;52.424;10.840;2023-07-31T14:32:57;0.95;;;0.95;;
64868;SDS011;51349;52.424;10.840;2023-07-31T14:37:57;1.10;;;1.00;;
64868;SDS011;51349;52.424;10.840;2023-07-31T14:42:58;2.75;;;0.70;;
64868;SDS011;51349;52.424;10.840;2023-07-31T14:47:59;0.70;;;0.70;;
64868;SDS011;51349;52.424;10.840;2023-07-31T14:52:59;0.65;;;0.65;;
64868;SDS011;51349;52.424;10.840;2023-07-31T14:58:00;0.80;;;0.80;;
64868;SDS011;51349;52.424;10.840;2023-07-31T15:03:01;0.77;;;0.77;;
64868;SDS011;51349;52.424;10.840;2023-07-31T15:08:02;0.77;;;0.70;;
64868;SDS011;51349;52.424;10.840;2023-07-31T15:13:03;1.00;;;0.70;;
64868;SDS011;51349;52.424;10.840;2023-07-31T15:18:03;0.90;;;0.90;;
64868;SDS011;51349;52.424;10.840;2023-07-31T15:23:04;0.90;;;0.90;;
64868;SDS011;51349;52.424;10.840;2023-07-31T15:28:05;1.05;;;1.00;;
64868;SDS011;51349;52.424;10.840;2023-07-31T15:33:07;0.75;;;0.75;;
64868;SDS011;51349;52.424;10.840;2023-07-31T15:38:08;0.75;;;0.75;;
64868;SDS011;51349;52.424;10.840;2023-07-31T15:43:09;0.90;;;0.90;;
64868;SDS011;51349;52.424;10.840;2023-07-31T15:48:09;1.10;;;1.10;;
64868;SDS011;51349;52.424;10.840;2023-07-31T15:53:10;1.20;;;1.10;;
64868;SDS011;51349;52.424;10.840;2023-07-31T15:58:11;1.95;;;1.10;;
64868;SDS011;51349;52.424;10.840;2023-07-31T16:03:11;1.15;;;1.15;;
64868;SDS011;51349;52.424;10.840;2023-07-31T16:08:12;1.10;;;1.10;;
64868;SDS011;51349;52.424;10.840;2023-07-31T16:13:14;2.83;;;1.15;;
64868;SDS011;51349;52.424;10.840;2023-07-31T16:18:14;1.33;;;1.30;;
64868;SDS011;51349;52.424;10.840;2023-07-31T16:23:15;1.17;;;1.17;;
64868;SDS011;51349;52.424;10.840;2023-07-31T16:28:16;1.20;;;1.20;;
64868;SDS011;51349;52.424;10.840;2023-07-31T16:33:16;1.50;;;1.40;;
64868;SDS011;51349;52.424;10.840;2023-07-31T16:38:17;1.40;;;1.40;;
64868;SDS011;51349;52.424;10.840;2023-07-31T16:43:21;1.50;;;1.40;;
64868;SDS011;51349;52.424;10.840;2023-07-31T16:48:21;1.50;;;1.40;;
64868;SDS011;51349;52.424;10.840;2023-07-31T16:53:22;1.38;;;1.33;;
64868;SDS011;51349;52.424;10.840;2023-07-31T16:58:23;1.67;;;1.40;;
64868;SDS011;51349;52.424;10.840;2023-07-31T17:03:23;1.60;;;1.50;;
64868;SDS011;51349;52.424;10.840;2023-07-31T17:08:24;1.65;;;1.55;;
64868;SDS011;51349;52.424;10.840;2023-07-31T17:13:25;2.08;;;1.60;;
64868;SDS011;51349;52.424;10.840;2023-07-31T17:18:25;1.48;;;1.40;;
64868;SDS011;51349;52.424;10.840;2023-07-31T17:23:26;1.60;;;1.50;;
64868;SDS011;51349;52.424;10.840;2023-07-31T17:28:26;1.35;;;1.25;;
64868;SDS011;51349;52.424;10.840;2023-07-31T17:33:27;1.52;;;1.42;;
64868;SDS011;51349;52.424;10.840;2023-07-31T17:38:28;1.35;;;1.33;;
64868;SDS011;51349;52.424;10.840;2023-07-31T17:43:28;1.30;;;1.30;;
64868;SDS011;51349;52.424;10.840;2023-07-31T17:48:29;1.40;;;1.30;;
64868;SDS011;51349;52.424;10.840;2023-07-31T17:53:31;2.83;;;1.40;;
64868;SDS011;51349;52.424;10.840;2023-07-31T17:58:32;1.63;;;1.52;;
64868;SDS011;51349;52.424;10.840;2023-07-31T18:03:33;1.50;;;1.40;;
64868;SDS011;51349;52.424;10.840;2023-07-31T18:08:33;1.10;;;1.10;;
64868;SDS011;51349;52.424;10.840;2023-07-31T18:13:34;1.33;;;1.30;;
64868;SDS011;51349;52.424;10.840;2023-07-31T18:18:35;1.33;;;1.25;;
64868;SDS011;51349;52.424;10.840;2023-07-31T18:23:35;1.38;;;1.27;;
64868;SDS011;51349;52.424;10.840;2023-07-31T18:28:36;2.55;;;1.48;;
64868;SDS011;51349;52.424;10.840;2023-07-31T18:33:37;1.50;;;1.40;;
64868;SDS011;51349;52.424;10.840;2023-07-31T18:38:37;1.27;;;1.20;;
64868;SDS011;51349;52.424;10.840;2023-07-31T18:43:38;1.65;;;1.55;;
64868;SDS011;51349;52.424;10.840;2023-07-31T18:48:39;1.67;;;1.58;;
64868;SDS011;51349;52.424;10.840;2023-07-31T18:53:39;1.63;;;1.58;;
64868;SDS011;51349;52.424;10.840;2023-07-31T18:58:40;1.80;;;1.70;;
64868;SDS011;51349;52.424;10.840;2023-07-31T19:03:41;2.13;;;1.90;;
64868;SDS011;51349;52.424;10.840;2023-07-31T19:08:41;2.03;;;1.90;;
64868;SDS011;51349;52.424;10.840;2023-07-31T19:13:42;1.90;;;1.80;;
64868;SDS011;51349;52.424;10.840;2023-07-31T19:18:45;2.10;;;2.00;;
64868;SDS011;51349;52.424;10.840;2023-07-31T19:23:45;3.53;;;2.08;;
64868;SDS011;51349;52.424;10.840;2023-07-31T19:28:46;2.10;;;1.90;;
64868;SDS011;51349;52.424;10.840;2023-07-31T19:33:47;2.30;;;2.03;;
64868;SDS011;51349;52.424;10.840;2023-07-31T19:38:47;3.38;;;2.00;;
64868;SDS011;51349;52.424;10.840;2023-07-31T19:43:48;2.08;;;1.88;;
64868;SDS011;51349;52.424;10.840;2023-07-31T19:48:49;1.98;;;1.88;;
64868;SDS011;51349;52.424;10.840;2023-07-31T19:53:49;3.13;;;2.30;;
64868;SDS011;51349;52.424;10.840;2023-07-31T19:58:50;2.10;;;2.00;;
64868;SDS011;51349;52.424;10.840;2023-07-31T20:03:51;2.10;;;2.00;;
64868;SDS011;51349;52.424;10.840;2023-07-31T20:08:53;2.60;;;1.88;;
64868;SDS011;51349;52.424;10.840;2023-07-31T20:13:53;2.17;;;1.98;;
64868;SDS011;51349;52.424;10.840;2023-07-31T20:18:54;2.03;;;1.88;;
64868;SDS011;51349;52.424;10.840;2023-07-31T20:23:55;2.00;;;1.85;;
64868;SDS011;51349;52.424;10.840;2023-07-31T20:28:55;3.00;;;2.15;;
64868;SDS011;51349;52.424;10.840;2023-07-31T20:33:56;3.50;;;2.08;;
64868;SDS011;51349;52.424;10.840;2023-07-31T20:38:56;4.88;;;2.15;;
64868;SDS011;51349;52.424;10.840;2023-07-31T20:43:57;2.50;;;2.30;;
64868;SDS011;51349;52.424;10.840;2023-07-31T20:48:58;2.75;;;2.53;;
64868;SDS011;51349;52.424;10.840;2023-07-31T20:53:58;3.22;;;2.50;;
64868;SDS011;51349;52.424;10.840;2023-07-31T20:58:59;4.35;;;2.55;;
64868;SDS011;51349;52.424;10.840;2023-07-31T21:04:00;3.90;;;2.80;;
64868;SDS011;51349;52.424;10.840;2023-07-31T21:09:00;3.45;;;2.70;;
64868;SDS011;51349;52.424;10.840;2023-07-31T21:14:01;2.80;;;2.60;;
64868;SDS011;51349;52.424;10.840;2023-07-31T21:19:02;2.80;;;2.53;;
64868;SDS011;51349;52.424;10.840;2023-07-31T21:24:02;3.30;;;3.00;;
64868;SDS011;51349;52.424;10.840;2023-07-31T21:29:03;5.88;;;3.08;;
64868;SDS011;51349;52.424;10.840;2023-07-31T21:34:04;3.88;;;3.00;;
64868;SDS011;51349;52.424;10.840;2023-07-31T21:39:04;3.50;;;3.20;;
64868;SDS011;51349;52.424;10.840;2023-07-31T21:44:05;4.93;;;3.20;;
64868;SDS011;51349;52.424;10.840;2023-07-31T21:49:05;5.68;;;3.10;;
64868;SDS011;51349;52.424;10.840;2023-07-31T21:54:07;2.67;;;2.47;;
64868;SDS011;51349;52.424;10.840;2023-07-31T21:59:07;4.38;;;3.15;;
64868;SDS011;51349;52.424;10.840;2023-07-31T22:04:08;3.42;;;3.17;;
64868;SDS011;51349;52.424;10.840;2023-07-31T22:09:09;3.20;;;3.00;;
64868;SDS011;51349;52.424;10.840;2023-07-31T22:14:09;3.65;;;3.35;;
64868;SDS011;51349;52.424;10.840;2023-07-31T22:19:10;3.30;;;3.00;;
64868;SDS011;51349;52.424;10.840;2023-07-31T22:24:11;2.80;;;2.60;;
64868;SDS011;51349;52.424;10.840;2023-07-31T22:29:11;3.15;;;2.90;;
64868;SDS011;51349;52.424;10.840;2023-07-31T22:34:12;2.80;;;2.60;;
64868;SDS011;51349;52.424;10.840;2023-07-31T22:39:13;2.63;;;2.42;;
64868;SDS011;51349;52.424;10.840;2023-07-31T22:44:15;2.90;;;2.60;;
64868;SDS011;51349;52.424;10.840;2023-07-31T22:49:16;2.85;;;2.58;;
64868;SDS011;51349;52.424;10.840;2023-07-31T22:54:16;2.83;;;2.40;;
64868;SDS011;51349;52.424;10.840;2023-07-31T22:59:17;2.33;;;2.15;;
64868;SDS011;51349;52.424;10.840;2023-07-31T23:04:18;3.60;;;2.03;;
64868;SDS011;51349;52.424;10.840;2023-07-31T23:09:19;2.00;;;1.90;;
64868;SDS011;51349;52.424;10.840;2023-07-31T23:14:19;2.22;;;2.00;;
64868;SDS011;51349;52.424;10.840;2023-07-31T23:19:20;2.00;;;1.80;;
64868;SDS011;51349;52.424;10.840;2023-07-31T23:24:23;2.38;;;2.05;;
64868;SDS011;51349;52.424;10.840;2023-07-31T23:29:23;7.32;;;1.50;;
64868;SDS011;51349;52.424;10.840;2023-07-31T23:34:24;1.92;;;1.63;;
64868;SDS011;51349;52.424;10.840;2023-07-31T23:39:25;1.70;;;1.60;;
64868;SDS011;51349;52.424;10.840;2023-07-31T23:44:26;1.48;;;1.38;;
64868;SDS011;51349;52.424;10.840;2023-07-31T23:49:26;2.45;;;1.60;;
64868;SDS011;51349;52.424;10.840;2023-07-31T23:54:27;1.40;;;1.30;;
64868;SDS011;51349;52.424;10.840;2023-07-31T23:59:28;2.47;;;1.50;;
